Cape Providence — 3EWQ — position and weather

sailwx.info

Track history (hours):
 
Tides and Currents Weather Stations Pressure Air Temp Water Temp Dewpoint Dewpoint Depression Visibility Wind Speed Wind Dir Waves Ship Positions

Cape Providence

Last reported at 2014-Oct-21 23:32 UTC. Time now 2014-Oct-23 08:07 UTC.
Position N 21°60' E 119°47'.

Length 292 m; draft 6 m.

Type: Cargo ship. MMSI: 372773000.

Date/timePositionNaut miles runAvg speedWind from/ knotsBaromVisibWave heightAir tempDewpointWater temp
2014-Oct-21 23:32N 21°60' E 119°47'1111.6
2014-Oct-21 22:33N 22°11' E 119°48'1211.6
2014-Oct-21 21:30N 22°23' E 119°48'1212.1
2014-Oct-21 20:33N 22°35' E 119°48'1211.6
2014-Oct-21 19:33N 22°46' E 119°49'6611.1
2014-Oct-21 13:33N 23°53' E 119°54'5310.5
2014-Oct-21 08:33N 24°39' E 120°21'1211.6
2014-Oct-21 07:32N 24°49' E 120°28'1010.6
2014-Oct-21 06:33N 24°58' E 120°34'9 9.1
2014-Oct-21 05:31N 25°06' E 120°40'26010.8
2014-Oct-20 05:33N 28°46' E 123°14'1111.0
2014-Oct-20 04:32N 28°55' E 123°21'1111.5
2014-Oct-20 03:33N 29°05' E 123°28'1312.6
2014-Oct-20 02:33N 29°16' E 123°35'1312.5
2014-Oct-20 01:29N 29°27' E 123°43'1212.5
2014-Oct-20 00:33N 29°37' E 123°50'1211.7
2014-Oct-19 23:32N 29°47' E 123°57'29510.5
2014-Oct-18 19:22N 34°42' E 123°37'1011.4
2014-Oct-18 18:32N 34°52' E 123°35'2711.1
2014-Oct-18 16:08N 35°18' E 123°30'2210.8
2014-Oct-18 14:08N 35°39' E 123°26'1211.1
2014-Oct-18 13:05N 35°51' E 123°24'911.1
2014-Oct-18 12:14N 36°00' E 123°22'6711.0
2014-Oct-18 06:10N 37°06' E 123°10'810.2
2014-Oct-18 05:22N 37°14' E 123°08'1110.4
2014-Oct-18 04:21N 37°24' E 123°02'910.7
2014-Oct-18 03:29N 37°32' E 122°56'1011.0
2014-Oct-18 02:33N 37°39' E 122°46'1211.6
2014-Oct-18 01:33N 37°45' E 122°34'1211.8
2014-Oct-18 00:33N 37°51' E 122°22'1111.3
2014-Oct-17 23:33N 37°59' E 122°11'1111.4
2014-Oct-17 22:33N 38°04' E 121°58'1611.3
2014-Oct-17 21:06N 38°12' E 121°39'611.2
2014-Oct-17 20:33N 38°16' E 121°33'1211.4
2014-Oct-17 19:33N 38°22' E 121°21'1411.5
2014-Oct-17 18:20N 38°29' E 121°05'911.7
2014-Oct-17 17:32N 38°33' E 120°55'4410.7
2014-Oct-17 13:23N 39°09' E 120°22'8 9.3
2014-Oct-17 12:34N 39°15' E 120°16'28 9.3
2014-Oct-17 09:33N 39°41' E 120°01'4 4.5
2014-Oct-17 08:33N 39°45' E 119°59'3 3.1
2014-Oct-17 07:33N 39°48' E 119°59'0 0.0
2014-Oct-17 06:33N 39°48' E 119°59'5 4.4
2014-Oct-17 05:31N 39°52' E 119°56'7 7.6
2014-Oct-17 04:33N 39°57' E 119°49'2 1.8
2014-Oct-17 03:33N 39°59' E 119°50'0 0.0
2014-Oct-17 02:31N 39°59' E 119°50'0 0.0
2014-Oct-17 01:31N 39°59' E 119°50'0 0.0
2014-Oct-17 00:31N 39°59' E 119°50'0 0.0
2014-Oct-16 23:31N 39°59' E 119°50'0 0.0
2014-Oct-16 22:31N 39°59' E 119°50'0 0.0
2014-Oct-16 21:31N 39°59' E 119°50'0 0.0
2014-Oct-16 20:31N 39°59' E 119°50'0 0.0
2014-Oct-16 19:31N 39°59' E 119°50'0 0.0
2014-Oct-16 18:31N 39°59' E 119°50'0 0.0
2014-Oct-16 17:31N 39°59' E 119°50'0 0.0
2014-Oct-16 16:31N 39°59' E 119°50'0 0.0
2014-Oct-16 15:31N 39°59' E 119°50'0 0.0
2014-Oct-16 14:31N 39°59' E 119°50'0 0.0
2014-Oct-16 13:31N 39°59' E 119°50'0 0.0
2014-Oct-16 12:31N 39°59' E 119°50'0 0.0
2014-Oct-16 11:32N 39°59' E 119°50'0 0.0
2014-Oct-16 10:31N 39°59' E 119°50'0 0.0
2014-Oct-16 09:31N 39°59' E 119°50'0 0.0
2014-Oct-16 08:31N 39°59' E 119°50'0 0.0
2014-Oct-16 07:31N 39°59' E 119°50'0 0.0
2014-Oct-16 06:31N 39°59' E 119°50'0 0.0
2014-Oct-16 05:31N 39°59' E 119°50'0 0.0
2014-Oct-16 04:31N 39°59' E 119°50'0 0.0
2014-Oct-16 03:31N 39°59' E 119°50'0 0.0
2014-Oct-16 02:31N 39°59' E 119°50'0 0.3
2014-Oct-16 01:33N 39°59' E 119°50'0 0.1
2014-Oct-15 23:24N 39°59' E 119°50'0 0.0
2014-Oct-15 22:30N 39°59' E 119°50'0 0.0
2014-Oct-15 21:30N 39°59' E 119°50'0 0.0
2014-Oct-15 20:30N 39°59' E 119°50'0 0.0
2014-Oct-15 19:30N 39°59' E 119°50'0 0.0
2014-Oct-15 18:18N 39°59' E 119°50'0 0.0
2014-Oct-15 17:12N 39°59' E 119°50'0 0.0
2014-Oct-15 16:30N 39°59' E 119°50'0 0.0
2014-Oct-15 15:30N 39°59' E 119°50'0 0.0
2014-Oct-15 14:30N 39°59' E 119°50'0 0.0
2014-Oct-15 13:30N 39°59' E 119°50'0 0.0
2014-Oct-15 12:30N 39°59' E 119°50'0 0.0
2014-Oct-15 11:24N 39°59' E 119°50'0 0.0
2014-Oct-15 10:18N 39°59' E 119°50'0 0.0
2014-Oct-15 09:30N 39°59' E 119°50'0 0.0
2014-Oct-15 08:30N 39°59' E 119°50'0 0.0
2014-Oct-15 07:30N 39°59' E 119°50'0 0.0
2014-Oct-15 06:30N 39°59' E 119°50'0 0.0
2014-Oct-15 05:30N 39°59' E 119°50'0 0.0
2014-Oct-15 04:30N 39°59' E 119°50'0 0.0
2014-Oct-15 03:30N 39°59' E 119°50'  
Track history (hours):
 
Tides and Currents Weather Stations Pressure Air Temp Water Temp Dewpoint Dewpoint Depression Visibility Wind Speed Wind Dir Waves Ship Positions

Cape Providence

Last reported at 2014-Oct-21 23:32 UTC. Time now 2014-Oct-23 08:07 UTC.
Position N 21°60' E 119°47'.

Length 292 m; draft 6 m.

Type: Cargo ship. MMSI: 372773000.

Date/timePositionNaut miles runAvg speedWind from/ knotsBaromVisibWave heightAir tempDewpointWater temp
2014-Oct-21 23:32N 21°60' E 119°47'1111.6
2014-Oct-21 22:33N 22°11' E 119°48'1211.6
2014-Oct-21 21:30N 22°23' E 119°48'1212.1
2014-Oct-21 20:33N 22°35' E 119°48'1211.6
2014-Oct-21 19:33N 22°46' E 119°49'6611.1
2014-Oct-21 13:33N 23°53' E 119°54'5310.5
2014-Oct-21 08:33N 24°39' E 120°21'1211.6
2014-Oct-21 07:32N 24°49' E 120°28'1010.6
2014-Oct-21 06:33N 24°58' E 120°34'9 9.1
2014-Oct-21 05:31N 25°06' E 120°40'26010.8
2014-Oct-20 05:33N 28°46' E 123°14'1111.0
2014-Oct-20 04:32N 28°55' E 123°21'1111.5
2014-Oct-20 03:33N 29°05' E 123°28'1312.6
2014-Oct-20 02:33N 29°16' E 123°35'1312.5
2014-Oct-20 01:29N 29°27' E 123°43'1212.5
2014-Oct-20 00:33N 29°37' E 123°50'1211.7
2014-Oct-19 23:32N 29°47' E 123°57'29510.5
2014-Oct-18 19:22N 34°42' E 123°37'1011.4
2014-Oct-18 18:32N 34°52' E 123°35'2711.1
2014-Oct-18 16:08N 35°18' E 123°30'2210.8
2014-Oct-18 14:08N 35°39' E 123°26'1211.1
2014-Oct-18 13:05N 35°51' E 123°24'911.1
2014-Oct-18 12:14N 36°00' E 123°22'6711.0
2014-Oct-18 06:10N 37°06' E 123°10'810.2
2014-Oct-18 05:22N 37°14' E 123°08'1110.4
2014-Oct-18 04:21N 37°24' E 123°02'910.7
2014-Oct-18 03:29N 37°32' E 122°56'1011.0
2014-Oct-18 02:33N 37°39' E 122°46'1211.6
2014-Oct-18 01:33N 37°45' E 122°34'1211.8
2014-Oct-18 00:33N 37°51' E 122°22'1111.3
2014-Oct-17 23:33N 37°59' E 122°11'1111.4
2014-Oct-17 22:33N 38°04' E 121°58'1611.3
2014-Oct-17 21:06N 38°12' E 121°39'611.2
2014-Oct-17 20:33N 38°16' E 121°33'1211.4
2014-Oct-17 19:33N 38°22' E 121°21'1411.5
2014-Oct-17 18:20N 38°29' E 121°05'911.7
2014-Oct-17 17:32N 38°33' E 120°55'4410.7
2014-Oct-17 13:23N 39°09' E 120°22'8 9.3
2014-Oct-17 12:34N 39°15' E 120°16'28 9.3
2014-Oct-17 09:33N 39°41' E 120°01'4 4.5
2014-Oct-17 08:33N 39°45' E 119°59'3 3.1
2014-Oct-17 07:33N 39°48' E 119°59'0 0.0
2014-Oct-17 06:33N 39°48' E 119°59'5 4.4
2014-Oct-17 05:31N 39°52' E 119°56'7 7.6
2014-Oct-17 04:33N 39°57' E 119°49'2 1.8
2014-Oct-17 03:33N 39°59' E 119°50'0 0.0
2014-Oct-17 02:31N 39°59' E 119°50'0 0.0
2014-Oct-17 01:31N 39°59' E 119°50'0 0.0
2014-Oct-17 00:31N 39°59' E 119°50'0 0.0
2014-Oct-16 23:31N 39°59' E 119°50'0 0.0
2014-Oct-16 22:31N 39°59' E 119°50'0 0.0
2014-Oct-16 21:31N 39°59' E 119°50'0 0.0
2014-Oct-16 20:31N 39°59' E 119°50'0 0.0
2014-Oct-16 19:31N 39°59' E 119°50'0 0.0
2014-Oct-16 18:31N 39°59' E 119°50'0 0.0
2014-Oct-16 17:31N 39°59' E 119°50'0 0.0
2014-Oct-16 16:31N 39°59' E 119°50'0 0.0
2014-Oct-16 15:31N 39°59' E 119°50'0 0.0
2014-Oct-16 14:31N 39°59' E 119°50'0 0.0
2014-Oct-16 13:31N 39°59' E 119°50'0 0.0
2014-Oct-16 12:31N 39°59' E 119°50'0 0.0
2014-Oct-16 11:32N 39°59' E 119°50'0 0.0
2014-Oct-16 10:31N 39°59' E 119°50'0 0.0
2014-Oct-16 09:31N 39°59' E 119°50'0 0.0
2014-Oct-16 08:31N 39°59' E 119°50'0 0.0
2014-Oct-16 07:31N 39°59' E 119°50'0 0.0
2014-Oct-16 06:31N 39°59' E 119°50'0 0.0
2014-Oct-16 05:31N 39°59' E 119°50'0 0.0
2014-Oct-16 04:31N 39°59' E 119°50'0 0.0
2014-Oct-16 03:31N 39°59' E 119°50'0 0.0
2014-Oct-16 02:31N 39°59' E 119°50'0 0.3
2014-Oct-16 01:33N 39°59' E 119°50'0 0.1
2014-Oct-15 23:24N 39°59' E 119°50'0 0.0
2014-Oct-15 22:30N 39°59' E 119°50'0 0.0
2014-Oct-15 21:30N 39°59' E 119°50'0 0.0
2014-Oct-15 20:30N 39°59' E 119°50'0 0.0
2014-Oct-15 19:30N 39°59' E 119°50'0 0.0
2014-Oct-15 18:18N 39°59' E 119°50'0 0.0
2014-Oct-15 17:12N 39°59' E 119°50'0 0.0
2014-Oct-15 16:30N 39°59' E 119°50'0 0.0
2014-Oct-15 15:30N 39°59' E 119°50'0 0.0
2014-Oct-15 14:30N 39°59' E 119°50'0 0.0
2014-Oct-15 13:30N 39°59' E 119°50'0 0.0
2014-Oct-15 12:30N 39°59' E 119°50'0 0.0
2014-Oct-15 11:24N 39°59' E 119°50'0 0.0
2014-Oct-15 10:18N 39°59' E 119°50'0 0.0
2014-Oct-15 09:30N 39°59' E 119°50'0 0.0
2014-Oct-15 08:30N 39°59' E 119°50'0 0.0
2014-Oct-15 07:30N 39°59' E 119°50'0 0.0
2014-Oct-15 06:30N 39°59' E 119°50'0 0.0
2014-Oct-15 05:30N 39°59' E 119°50'0 0.0
2014-Oct-15 04:30N 39°59' E 119°50'0 0.0
2014-Oct-15 03:30N 39°59' E 119°50'  

Dump ship's entire track history